sensor_id;sensor_type;location;lat;lon;timestamp;temperature;humidity
66312;HTU21D;53114;51.138;6.008;2023-02-26T00:00:07;1.51;118.99
66312;HTU21D;53114;51.138;6.008;2023-02-26T00:02:38;1.50;118.99
66312;HTU21D;53114;51.138;6.008;2023-02-26T00:05:05;1.48;118.99
66312;HTU21D;53114;51.138;6.008;2023-02-26T00:07:31;1.45;118.99
66312;HTU21D;53114;51.138;6.008;2023-02-26T00:09:57;1.46;118.99
66312;HTU21D;53114;51.138;6.008;2023-02-26T00:12:23;1.47;118.99
66312;HTU21D;53114;51.138;6.008;2023-02-26T00:14:50;1.47;118.99
66312;HTU21D;53114;51.138;6.008;2023-02-26T00:20:16;1.53;118.99
66312;HTU21D;53114;51.138;6.008;2023-02-26T00:22:43;1.56;118.99
66312;HTU21D;53114;51.138;6.008;2023-02-26T00:25:09;1.58;118.99
66312;HTU21D;53114;51.138;6.008;2023-02-26T00:27:36;1.62;118.99
66312;HTU21D;53114;51.138;6.008;2023-02-26T00:30:05;1.62;118.99
66312;HTU21D;53114;51.138;6.008;2023-02-26T00:32:33;1.57;118.99
66312;HTU21D;53114;51.138;6.008;2023-02-26T00:34:59;1.55;118.99
66312;HTU21D;53114;51.138;6.008;2023-02-26T00:37:28;1.53;118.99
66312;HTU21D;53114;51.138;6.008;2023-02-26T00:40:17;1.50;118.99
66312;HTU21D;53114;51.138;6.008;2023-02-26T00:42:46;1.48;118.99
66312;HTU21D;53114;51.138;6.008;2023-02-26T00:45:13;1.45;118.99
66312;HTU21D;53114;51.138;6.008;2023-02-26T00:47:59;1.41;118.99
66312;HTU21D;53114;51.138;6.008;2023-02-26T00:50:31;1.37;118.99
66312;HTU21D;53114;51.138;6.008;2023-02-26T00:55:34;1.26;118.99
66312;HTU21D;53114;51.138;6.008;2023-02-26T00:58:01;1.25;118.99
66312;HTU21D;53114;51.138;6.008;2023-02-26T01:00:29;1.27;118.99
66312;HTU21D;53114;51.138;6.008;2023-02-26T01:02:56;1.33;118.99
66312;HTU21D;53114;51.138;6.008;2023-02-26T01:05:22;1.41;118.99
66312;HTU21D;53114;51.138;6.008;2023-02-26T01:08:12;1.53;118.99
66312;HTU21D;53114;51.138;6.008;2023-02-26T01:10:39;1.61;118.99
66312;HTU21D;53114;51.138;6.008;2023-02-26T01:13:05;1.72;118.99
66312;HTU21D;53114;51.138;6.008;2023-02-26T01:15:33;1.79;118.99
66312;HTU21D;53114;51.138;6.008;2023-02-26T01:20:48;1.91;118.99
66312;HTU21D;53114;51.138;6.008;2023-02-26T01:23:22;1.90;118.99
66312;HTU21D;53114;51.138;6.008;2023-02-26T01:25:55;1.84;118.99
66312;HTU21D;53114;51.138;6.008;2023-02-26T01:28:23;1.79;118.99
66312;HTU21D;53114;51.138;6.008;2023-02-26T01:30:56;1.71;118.99
66312;HTU21D;53114;51.138;6.008;2023-02-26T01:33:39;1.65;118.99
66312;HTU21D;53114;51.138;6.008;2023-02-26T01:36:20;1.65;118.99
66312;HTU21D;53114;51.138;6.008;2023-02-26T01:39:07;1.67;118.99
66312;HTU21D;53114;51.138;6.008;2023-02-26T01:41:46;1.75;118.99
66312;HTU21D;53114;51.138;6.008;2023-02-26T01:47:20;1.80;118.99
66312;HTU21D;53114;51.138;6.008;2023-02-26T01:49:48;1.79;118.99
66312;HTU21D;53114;51.138;6.008;2023-02-26T01:55:20;1.88;118.99
66312;HTU21D;53114;51.138;6.008;2023-02-26T01:57:52;1.94;118.99
66312;HTU21D;53114;51.138;6.008;2023-02-26T02:00:19;1.97;118.99
66312;HTU21D;53114;51.138;6.008;2023-02-26T02:02:46;2.01;118.99
66312;HTU21D;53114;51.138;6.008;2023-02-26T02:05:20;2.05;118.99
66312;HTU21D;53114;51.138;6.008;2023-02-26T02:07:48;2.06;118.99
66312;HTU21D;53114;51.138;6.008;2023-02-26T02:10:15;2.01;118.99
66312;HTU21D;53114;51.138;6.008;2023-02-26T02:15:37;2.03;118.99
66312;HTU21D;53114;51.138;6.008;2023-02-26T02:21:02;1.87;118.99
66312;HTU21D;53114;51.138;6.008;2023-02-26T02:29:13;1.48;118.99
66312;HTU21D;53114;51.138;6.008;2023-02-26T02:31:49;1.37;118.99
66312;HTU21D;53114;51.138;6.008;2023-02-26T02:34:22;1.29;118.99
66312;HTU21D;53114;51.138;6.008;2023-02-26T02:37:26;1.23;118.99
66312;HTU21D;53114;51.138;6.008;2023-02-26T02:40:12;1.16;118.99
66312;HTU21D;53114;51.138;6.008;2023-02-26T02:42:50;1.08;118.99
66312;HTU21D;53114;51.138;6.008;2023-02-26T02:47:58;0.94;118.99
66312;HTU21D;53114;51.138;6.008;2023-02-26T02:50:36;0.89;118.99
66312;HTU21D;53114;51.138;6.008;2023-02-26T02:53:13;0.82;118.99
66312;HTU21D;53114;51.138;6.008;2023-02-26T02:58:28;0.74;118.99
66312;HTU21D;53114;51.138;6.008;2023-02-26T03:00:59;0.72;118.99
66312;HTU21D;53114;51.138;6.008;2023-02-26T03:03:31;0.71;118.99
66312;HTU21D;53114;51.138;6.008;2023-02-26T03:05:59;0.71;118.99
66312;HTU21D;53114;51.138;6.008;2023-02-26T03:08:29;0.68;118.99
66312;HTU21D;53114;51.138;6.008;2023-02-26T03:10:56;0.66;118.99
66312;HTU21D;53114;51.138;6.008;2023-02-26T03:13:24;0.68;118.99
66312;HTU21D;53114;51.138;6.008;2023-02-26T03:16:20;0.76;118.99
66312;HTU21D;53114;51.138;6.008;2023-02-26T03:22:12;0.87;118.99
66312;HTU21D;53114;51.138;6.008;2023-02-26T03:25:11;0.96;118.99
66312;HTU21D;53114;51.138;6.008;2023-02-26T03:28:07;0.97;118.99
66312;HTU21D;53114;51.138;6.008;2023-02-26T03:34:17;0.95;118.99
66312;HTU21D;53114;51.138;6.008;2023-02-26T03:36:54;0.91;118.99
66312;HTU21D;53114;51.138;6.008;2023-02-26T03:39:38;0.81;118.99
66312;HTU21D;53114;51.138;6.008;2023-02-26T03:42:24;0.73;118.99
66312;HTU21D;53114;51.138;6.008;2023-02-26T03:45:06;0.65;118.99
66312;HTU21D;53114;51.138;6.008;2023-02-26T03:47:35;0.62;118.99
66312;HTU21D;53114;51.138;6.008;2023-02-26T03:50:07;0.58;118.99
66312;HTU21D;53114;51.138;6.008;2023-02-26T03:52:48;0.50;118.99
66312;HTU21D;53114;51.138;6.008;2023-02-26T03:55:41;0.43;118.99
66312;HTU21D;53114;51.138;6.008;2023-02-26T03:58:30;0.37;118.99
66312;HTU21D;53114;51.138;6.008;2023-02-26T04:01:34;0.34;118.99
66312;HTU21D;53114;51.138;6.008;2023-02-26T04:04:07;0.31;118.99
66312;HTU21D;53114;51.138;6.008;2023-02-26T04:06:34;0.31;118.99
66312;HTU21D;53114;51.138;6.008;2023-02-26T04:09:02;0.28;118.99
66312;HTU21D;53114;51.138;6.008;2023-02-26T04:11:33;0.25;118.99
66312;HTU21D;53114;51.138;6.008;2023-02-26T04:14:00;0.21;118.99
66312;HTU21D;53114;51.138;6.008;2023-02-26T04:16:26;0.16;118.99
66312;HTU21D;53114;51.138;6.008;2023-02-26T04:18:52;0.13;118.99
66312;HTU21D;53114;51.138;6.008;2023-02-26T04:21:21;0.14;118.99
66312;HTU21D;53114;51.138;6.008;2023-02-26T04:23:47;0.13;118.99
66312;HTU21D;53114;51.138;6.008;2023-02-26T04:26:14;0.13;118.99
66312;HTU21D;53114;51.138;6.008;2023-02-26T04:28:41;0.13;118.99
66312;HTU21D;53114;51.138;6.008;2023-02-26T04:31:07;0.10;118.99
66312;HTU21D;53114;51.138;6.008;2023-02-26T04:33:35;0.13;118.99
66312;HTU21D;53114;51.138;6.008;2023-02-26T04:36:01;0.12;118.99
66312;HTU21D;53114;51.138;6.008;2023-02-26T04:38:27;0.06;118.99
66312;HTU21D;53114;51.138;6.008;2023-02-26T04:40:54;0.05;118.99
66312;HTU21D;53114;51.138;6.008;2023-02-26T04:43:20;0.03;118.99
66312;HTU21D;53114;51.138;6.008;2023-02-26T04:45:56;0.01;118.99
66312;HTU21D;53114;51.138;6.008;2023-02-26T04:48:22;0.01;118.99
66312;HTU21D;53114;51.138;6.008;2023-02-26T04:50:48;-0.00;118.99
66312;HTU21D;53114;51.138;6.008;2023-02-26T04:53:14;-0.03;118.99
66312;HTU21D;53114;51.138;6.008;2023-02-26T04:55:40;-0.03;118.99
66312;HTU21D;53114;51.138;6.008;2023-02-26T04:58:06;-0.07;118.99
66312;HTU21D;53114;51.138;6.008;2023-02-26T05:00:33;-0.06;118.99
66312;HTU21D;53114;51.138;6.008;2023-02-26T05:03:00;-0.08;118.99
66312;HTU21D;53114;51.138;6.008;2023-02-26T05:05:26;-0.09;118.99
66312;HTU21D;53114;51.138;6.008;2023-02-26T05:07:52;-0.08;118.99
66312;HTU21D;53114;51.138;6.008;2023-02-26T05:10:22;-0.09;118.99
66312;HTU21D;53114;51.138;6.008;2023-02-26T05:12:48;-0.10;118.99
66312;HTU21D;53114;51.138;6.008;2023-02-26T05:15:14;-0.10;118.99
66312;HTU21D;53114;51.138;6.008;2023-02-26T05:17:41;-0.11;118.99
66312;HTU21D;53114;51.138;6.008;2023-02-26T05:20:08;-0.13;118.99
66312;HTU21D;53114;51.138;6.008;2023-02-26T05:22:36;-0.16;118.99
66312;HTU21D;53114;51.138;6.008;2023-02-26T05:25:03;-0.20;118.99
66312;HTU21D;53114;51.138;6.008;2023-02-26T05:27:29;-0.20;118.99
66312;HTU21D;53114;51.138;6.008;2023-02-26T05:29:55;-0.21;118.99
66312;HTU21D;53114;51.138;6.008;2023-02-26T05:32:21;-0.23;118.99
66312;HTU21D;53114;51.138;6.008;2023-02-26T05:34:47;-0.26;118.99
66312;HTU21D;53114;51.138;6.008;2023-02-26T05:37:13;-0.28;118.99
66312;HTU21D;53114;51.138;6.008;2023-02-26T05:39:39;-0.29;118.99
66312;HTU21D;53114;51.138;6.008;2023-02-26T05:42:08;-0.28;118.99
66312;HTU21D;53114;51.138;6.008;2023-02-26T05:44:34;-0.29;118.99
66312;HTU21D;53114;51.138;6.008;2023-02-26T05:47:01;-0.30;118.99
66312;HTU21D;53114;51.138;6.008;2023-02-26T05:49:28;-0.31;118.99
66312;HTU21D;53114;51.138;6.008;2023-02-26T05:51:53;-0.35;118.99
66312;HTU21D;53114;51.138;6.008;2023-02-26T05:54:20;-0.37;118.99
66312;HTU21D;53114;51.138;6.008;2023-02-26T05:56:45;-0.41;118.99
66312;HTU21D;53114;51.138;6.008;2023-02-26T05:59:11;-0.43;118.99
66312;HTU21D;53114;51.138;6.008;2023-02-26T06:01:37;-0.44;118.99
66312;HTU21D;53114;51.138;6.008;2023-02-26T06:04:04;-0.43;118.99
66312;HTU21D;53114;51.138;6.008;2023-02-26T06:06:31;-0.41;118.99
66312;HTU21D;53114;51.138;6.008;2023-02-26T06:08:57;-0.44;118.99
66312;HTU21D;53114;51.138;6.008;2023-02-26T06:11:23;-0.46;118.99
66312;HTU21D;53114;51.138;6.008;2023-02-26T06:13:49;-0.49;118.99
66312;HTU21D;53114;51.138;6.008;2023-02-26T06:16:15;-0.45;118.99
66312;HTU21D;53114;51.138;6.008;2023-02-26T06:18:41;-0.47;118.99
66312;HTU21D;53114;51.138;6.008;2023-02-26T06:21:06;-0.47;118.99
66312;HTU21D;53114;51.138;6.008;2023-02-26T06:23:33;-0.49;118.99
66312;HTU21D;53114;51.138;6.008;2023-02-26T06:25:59;-0.49;118.99
66312;HTU21D;53114;51.138;6.008;2023-02-26T06:28:25;-0.50;118.99
66312;HTU21D;53114;51.138;6.008;2023-02-26T06:30:52;-0.49;118.99
66312;HTU21D;53114;51.138;6.008;2023-02-26T06:33:19;-0.46;118.99
66312;HTU21D;53114;51.138;6.008;2023-02-26T06:35:45;-0.47;118.99
66312;HTU21D;53114;51.138;6.008;2023-02-26T06:38:12;-0.46;118.99
66312;HTU21D;53114;51.138;6.008;2023-02-26T06:40:38;-0.45;118.99
66312;HTU21D;53114;51.138;6.008;2023-02-26T06:43:04;-0.47;118.99
66312;HTU21D;53114;51.138;6.008;2023-02-26T06:45:30;-0.49;118.99
66312;HTU21D;53114;51.138;6.008;2023-02-26T06:47:57;-0.47;118.99
66312;HTU21D;53114;51.138;6.008;2023-02-26T06:50:23;-0.46;118.99
66312;HTU21D;53114;51.138;6.008;2023-02-26T06:52:49;-0.47;118.99
66312;HTU21D;53114;51.138;6.008;2023-02-26T06:55:15;-0.46;118.99
66312;HTU21D;53114;51.138;6.008;2023-02-26T06:57:42;-0.45;118.99
66312;HTU21D;53114;51.138;6.008;2023-02-26T07:00:08;-0.44;118.99
66312;HTU21D;53114;51.138;6.008;2023-02-26T07:02:35;-0.42;118.99
66312;HTU21D;53114;51.138;6.008;2023-02-26T07:05:01;-0.40;118.99
66312;HTU21D;53114;51.138;6.008;2023-02-26T07:07:27;-0.37;118.99
66312;HTU21D;53114;51.138;6.008;2023-02-26T07:09:53;-0.37;118.99
66312;HTU21D;53114;51.138;6.008;2023-02-26T07:12:19;-0.32;118.99
66312;HTU21D;53114;51.138;6.008;2023-02-26T07:14:44;-0.21;118.99
66312;HTU21D;53114;51.138;6.008;2023-02-26T07:17:11;-0.15;118.99
66312;HTU21D;53114;51.138;6.008;2023-02-26T07:19:47;0.05;118.99
66312;HTU21D;53114;51.138;6.008;2023-02-26T07:22:13;0.19;118.99
66312;HTU21D;53114;51.138;6.008;2023-02-26T07:24:40;0.19;118.99
66312;HTU21D;53114;51.138;6.008;2023-02-26T07:27:07;0.28;118.99
66312;HTU21D;53114;51.138;6.008;2023-02-26T07:29:34;0.31;118.99
66312;HTU21D;53114;51.138;6.008;2023-02-26T07:32:00;0.39;118.99
66312;HTU21D;53114;51.138;6.008;2023-02-26T07:34:25;0.42;118.99
66312;HTU21D;53114;51.138;6.008;2023-02-26T07:36:51;0.43;118.99
66312;HTU21D;53114;51.138;6.008;2023-02-26T07:39:17;0.43;118.99
66312;HTU21D;53114;51.138;6.008;2023-02-26T07:41:43;0.44;118.99
66312;HTU21D;53114;51.138;6.008;2023-02-26T07:44:14;0.42;118.99
66312;HTU21D;53114;51.138;6.008;2023-02-26T07:46:40;0.38;118.99
66312;HTU21D;53114;51.138;6.008;2023-02-26T07:49:06;0.37;118.99
66312;HTU21D;53114;51.138;6.008;2023-02-26T07:51:32;0.40;118.99
66312;HTU21D;53114;51.138;6.008;2023-02-26T07:53:58;0.53;118.99
66312;HTU21D;53114;51.138;6.008;2023-02-26T07:56:24;0.72;118.99
66312;HTU21D;53114;51.138;6.008;2023-02-26T07:58:50;0.92;118.99
66312;HTU21D;53114;51.138;6.008;2023-02-26T08:01:16;1.01;118.99
66312;HTU21D;53114;51.138;6.008;2023-02-26T08:03:42;1.18;118.99
66312;HTU21D;53114;51.138;6.008;2023-02-26T08:06:08;1.37;118.99
66312;HTU21D;53114;51.138;6.008;2023-02-26T08:08:34;1.52;118.99
66312;HTU21D;53114;51.138;6.008;2023-02-26T08:11:01;1.60;118.99
66312;HTU21D;53114;51.138;6.008;2023-02-26T08:13:27;1.83;118.99
66312;HTU21D;53114;51.138;6.008;2023-02-26T08:15:53;2.25;118.99
66312;HTU21D;53114;51.138;6.008;2023-02-26T08:18:19;2.56;117.94
66312;HTU21D;53114;51.138;6.008;2023-02-26T08:20:45;2.59;115.05
66312;HTU21D;53114;51.138;6.008;2023-02-26T08:23:11;2.64;116.45
66312;HTU21D;53114;51.138;6.008;2023-02-26T08:25:38;2.79;113.85
66312;HTU21D;53114;51.138;6.008;2023-02-26T08:28:04;2.81;113.17
66312;HTU21D;53114;51.138;6.008;2023-02-26T08:30:30;2.73;112.48
66312;HTU21D;53114;51.138;6.008;2023-02-26T08:32:56;2.81;108.78
66312;HTU21D;53114;51.138;6.008;2023-02-26T08:35:22;3.13;114.85
66312;HTU21D;53114;51.138;6.008;2023-02-26T08:37:48;3.98;114.35
66312;HTU21D;53114;51.138;6.008;2023-02-26T08:40:16;5.59;115.09
66312;HTU21D;53114;51.138;6.008;2023-02-26T08:42:42;7.71;90.75
66312;HTU21D;53114;51.138;6.008;2023-02-26T08:45:08;9.70;67.31
66312;HTU21D;53114;51.138;6.008;2023-02-26T08:47:38;11.27;50.93
66312;HTU21D;53114;51.138;6.008;2023-02-26T08:50:06;12.17;47.64
66312;HTU21D;53114;51.138;6.008;2023-02-26T08:52:32;13.23;43.62
66312;HTU21D;53114;51.138;6.008;2023-02-26T08:54:58;14.03;41.81
66312;HTU21D;53114;51.138;6.008;2023-02-26T08:57:25;14.72;37.67
66312;HTU21D;53114;51.138;6.008;2023-02-26T08:59:52;14.87;39.33
66312;HTU21D;53114;51.138;6.008;2023-02-26T09:02:18;14.70;38.46
66312;HTU21D;53114;51.138;6.008;2023-02-26T09:04:44;15.01;37.76
66312;HTU21D;53114;51.138;6.008;2023-02-26T09:07:10;15.73;36.97
66312;HTU21D;53114;51.138;6.008;2023-02-26T09:09:36;15.86;35.55
66312;HTU21D;53114;51.138;6.008;2023-02-26T09:12:02;16.28;33.48
66312;HTU21D;53114;51.138;6.008;2023-02-26T09:14:31;16.46;32.74
66312;HTU21D;53114;51.138;6.008;2023-02-26T09:16:58;16.17;31.95
66312;HTU21D;53114;51.138;6.008;2023-02-26T09:19:24;15.55;34.32
66312;HTU21D;53114;51.138;6.008;2023-02-26T09:21:50;15.62;34.20
66312;HTU21D;53114;51.138;6.008;2023-02-26T09:24:16;16.06;33.20
66312;HTU21D;53114;51.138;6.008;2023-02-26T09:26:42;16.18;32.25
66312;HTU21D;53114;51.138;6.008;2023-02-26T09:29:08;16.01;33.05
66312;HTU21D;53114;51.138;6.008;2023-02-26T09:31:36;16.35;32.68
66312;HTU21D;53114;51.138;6.008;2023-02-26T09:34:02;16.90;31.09
66312;HTU21D;53114;51.138;6.008;2023-02-26T09:36:28;17.24;30.54
66312;HTU21D;53114;51.138;6.008;2023-02-26T09:38:55;17.17;28.82
66312;HTU21D;53114;51.138;6.008;2023-02-26T09:41:37;16.98;31.19
66312;HTU21D;53114;51.138;6.008;2023-02-26T09:44:23;17.47;29.20
66312;HTU21D;53114;51.138;6.008;2023-02-26T09:54:52;14.72;34.46
66312;HTU21D;53114;51.138;6.008;2023-02-26T09:57:40;15.74;32.02
66312;HTU21D;53114;51.138;6.008;2023-02-26T10:03:30;16.01;29.73
66312;HTU21D;53114;51.138;6.008;2023-02-26T10:19:49;13.89;33.67
66312;HTU21D;53114;51.138;6.008;2023-02-26T10:22:43;14.75;31.47
66312;HTU21D;53114;51.138;6.008;2023-02-26T10:25:15;15.27;30.61
66312;HTU21D;53114;51.138;6.008;2023-02-26T10:28:04;15.34;31.25
66312;HTU21D;53114;51.138;6.008;2023-02-26T10:30:57;14.80;28.90
66312;HTU21D;53114;51.138;6.008;2023-02-26T10:33:45;14.05;30.93
66312;HTU21D;53114;51.138;6.008;2023-02-26T10:38:42;12.43;36.39
66312;HTU21D;53114;51.138;6.008;2023-02-26T10:41:15;12.37;34.41
66312;HTU21D;53114;51.138;6.008;2023-02-26T10:44:04;11.85;35.05
66312;HTU21D;53114;51.138;6.008;2023-02-26T10:46:51;10.53;35.85
66312;HTU21D;53114;51.138;6.008;2023-02-26T10:52:16;9.75;40.16
66312;HTU21D;53114;51.138;6.008;2023-02-26T10:57:28;9.31;38.15
66312;HTU21D;53114;51.138;6.008;2023-02-26T10:59:58;9.11;40.18
66312;HTU21D;53114;51.138;6.008;2023-02-26T11:02:45;8.66;39.79
66312;HTU21D;53114;51.138;6.008;2023-02-26T11:05:29;7.72;40.55
66312;HTU21D;53114;51.138;6.008;2023-02-26T11:08:29;7.38;43.58
66312;HTU21D;53114;51.138;6.008;2023-02-26T11:10:59;7.84;43.63
66312;HTU21D;53114;51.138;6.008;2023-02-26T11:13:28;7.63;43.45
66312;HTU21D;53114;51.138;6.008;2023-02-26T11:15:57;7.83;43.95
66312;HTU21D;53114;51.138;6.008;2023-02-26T11:18:30;7.79;44.12
66312;HTU21D;53114;51.138;6.008;2023-02-26T11:20:59;7.57;43.20
66312;HTU21D;53114;51.138;6.008;2023-02-26T11:23:29;7.27;43.49
66312;HTU21D;53114;51.138;6.008;2023-02-26T11:26:04;7.39;43.87
66312;HTU21D;53114;51.138;6.008;2023-02-26T11:28:36;7.10;44.75
66312;HTU21D;53114;51.138;6.008;2023-02-26T11:31:09;7.14;45.06
66312;HTU21D;53114;51.138;6.008;2023-02-26T11:33:37;7.37;48.52
66312;HTU21D;53114;51.138;6.008;2023-02-26T11:36:12;8.34;43.43
66312;HTU21D;53114;51.138;6.008;2023-02-26T11:38:40;8.12;42.68
66312;HTU21D;53114;51.138;6.008;2023-02-26T11:41:12;8.67;45.61
66312;HTU21D;53114;51.138;6.008;2023-02-26T11:43:42;10.24;43.58
66312;HTU21D;53114;51.138;6.008;2023-02-26T11:46:10;10.74;36.81
66312;HTU21D;53114;51.138;6.008;2023-02-26T11:48:47;10.09;36.92
66312;HTU21D;53114;51.138;6.008;2023-02-26T11:51:19;9.22;38.73
66312;HTU21D;53114;51.138;6.008;2023-02-26T11:53:52;8.52;39.70
66312;HTU21D;53114;51.138;6.008;2023-02-26T11:59:17;10.15;41.48
66312;HTU21D;53114;51.138;6.008;2023-02-26T12:01:43;11.18;39.10
66312;HTU21D;53114;51.138;6.008;2023-02-26T12:04:12;11.75;35.74
66312;HTU21D;53114;51.138;6.008;2023-02-26T12:06:39;11.24;33.91
66312;HTU21D;53114;51.138;6.008;2023-02-26T12:09:11;10.07;35.12
66312;HTU21D;53114;51.138;6.008;2023-02-26T12:14:50;8.70;39.71
66312;HTU21D;53114;51.138;6.008;2023-02-26T12:20:28;8.53;39.64
66312;HTU21D;53114;51.138;6.008;2023-02-26T12:26:08;8.03;39.67
66312;HTU21D;53114;51.138;6.008;2023-02-26T12:31:52;7.55;41.61
66312;HTU21D;53114;51.138;6.008;2023-02-26T12:34:44;7.69;42.48
66312;HTU21D;53114;51.138;6.008;2023-02-26T12:55:06;6.93;42.60
66312;HTU21D;53114;51.138;6.008;2023-02-26T12:58:03;6.86;42.29
66312;HTU21D;53114;51.138;6.008;2023-02-26T13:00:46;6.66;41.55
66312;HTU21D;53114;51.138;6.008;2023-02-26T13:03:28;6.40;42.71
66312;HTU21D;53114;51.138;6.008;2023-02-26T13:09:18;6.21;42.10
66312;HTU21D;53114;51.138;6.008;2023-02-26T13:20:12;6.43;44.17
66312;HTU21D;53114;51.138;6.008;2023-02-26T13:23:27;6.50;44.30
66312;HTU21D;53114;51.138;6.008;2023-02-26T13:25:43;6.57;45.35
66312;HTU21D;53114;51.138;6.008;2023-02-26T13:31:48;6.44;43.76
66312;HTU21D;53114;51.138;6.008;2023-02-26T13:33:59;6.33;44.30
66312;HTU21D;53114;51.138;6.008;2023-02-26T13:36:28;6.22;44.30
66312;HTU21D;53114;51.138;6.008;2023-02-26T13:42:26;6.22;43.44
66312;HTU21D;53114;51.138;6.008;2023-02-26T13:55:51;6.57;44.09
66312;HTU21D;53114;51.138;6.008;2023-02-26T14:01:13;6.65;44.61
66312;HTU21D;53114;51.138;6.008;2023-02-26T14:03:52;6.73;44.04
66312;HTU21D;53114;51.138;6.008;2023-02-26T14:06:45;6.72;43.48
66312;HTU21D;53114;51.138;6.008;2023-02-26T14:17:17;6.44;43.13
66312;HTU21D;53114;51.138;6.008;2023-02-26T14:20:20;6.45;43.86
66312;HTU21D;53114;51.138;6.008;2023-02-26T14:25:45;6.66;42.63
66312;HTU21D;53114;51.138;6.008;2023-02-26T14:39:27;6.75;41.45
66312;HTU21D;53114;51.138;6.008;2023-02-26T14:42:05;6.61;41.34
66312;HTU21D;53114;51.138;6.008;2023-02-26T14:44:40;6.57;42.56
66312;HTU21D;53114;51.138;6.008;2023-02-26T14:47:08;6.64;42.57
66312;HTU21D;53114;51.138;6.008;2023-02-26T14:49:39;6.70;42.33
66312;HTU21D;53114;51.138;6.008;2023-02-26T14:58:16;6.69;44.18
66312;HTU21D;53114;51.138;6.008;2023-02-26T15:12:01;6.99;42.56
66312;HTU21D;53114;51.138;6.008;2023-02-26T15:17:47;7.31;43.15
66312;HTU21D;53114;51.138;6.008;2023-02-26T15:30:06;6.71;42.90
66312;HTU21D;53114;51.138;6.008;2023-02-26T15:32:36;6.58;43.84
66312;HTU21D;53114;51.138;6.008;2023-02-26T15:35:14;6.65;43.95
66312;HTU21D;53114;51.138;6.008;2023-02-26T15:37:40;6.76;44.09
66312;HTU21D;53114;51.138;6.008;2023-02-26T15:40:07;6.80;43.12
66312;HTU21D;53114;51.138;6.008;2023-02-26T15:42:37;6.80;43.55
66312;HTU21D;53114;51.138;6.008;2023-02-26T15:45:14;6.85;43.55
66312;HTU21D;53114;51.138;6.008;2023-02-26T15:47:41;6.82;44.02
66312;HTU21D;53114;51.138;6.008;2023-02-26T15:50:14;6.84;44.39
66312;HTU21D;53114;51.138;6.008;2023-02-26T15:52:41;6.91;44.22
66312;HTU21D;53114;51.138;6.008;2023-02-26T15:55:12;6.83;43.14
66312;HTU21D;53114;51.138;6.008;2023-02-26T15:57:39;6.73;42.66
66312;HTU21D;53114;51.138;6.008;2023-02-26T16:00:09;6.65;42.60
66312;HTU21D;53114;51.138;6.008;2023-02-26T16:02:41;6.64;42.79
66312;HTU21D;53114;51.138;6.008;2023-02-26T16:05:09;6.58;43.19
66312;HTU21D;53114;51.138;6.008;2023-02-26T16:07:36;6.49;43.18
66312;HTU21D;53114;51.138;6.008;2023-02-26T16:10:14;6.43;43.21
66312;HTU21D;53114;51.138;6.008;2023-02-26T16:12:43;6.36;43.17
66312;HTU21D;53114;51.138;6.008;2023-02-26T16:15:31;6.25;43.76
66312;HTU21D;53114;51.138;6.008;2023-02-26T16:18:03;6.16;44.38
66312;HTU21D;53114;51.138;6.008;2023-02-26T16:20:38;6.07;44.52
66312;HTU21D;53114;51.138;6.008;2023-02-26T16:23:28;5.98;45.35
66312;HTU21D;53114;51.138;6.008;2023-02-26T16:26:03;5.89;45.41
66312;HTU21D;53114;51.138;6.008;2023-02-26T16:28:37;5.80;45.64
66312;HTU21D;53114;51.138;6.008;2023-02-26T16:31:20;5.72;46.03
66312;HTU21D;53114;51.138;6.008;2023-02-26T16:34:02;5.68;46.16
66312;HTU21D;53114;51.138;6.008;2023-02-26T16:36:32;5.61;46.73
66312;HTU21D;53114;51.138;6.008;2023-02-26T16:39:15;5.48;46.89
66312;HTU21D;53114;51.138;6.008;2023-02-26T16:41:46;5.41;46.99
66312;HTU21D;53114;51.138;6.008;2023-02-26T16:44:46;5.32;47.61
66312;HTU21D;53114;51.138;6.008;2023-02-26T16:47:14;5.25;48.15
66312;HTU21D;53114;51.138;6.008;2023-02-26T16:49:43;5.19;48.42
66312;HTU21D;53114;51.138;6.008;2023-02-26T16:52:19;5.10;48.81
66312;HTU21D;53114;51.138;6.008;2023-02-26T16:54:57;5.04;49.15
66312;HTU21D;53114;51.138;6.008;2023-02-26T16:57:34;4.93;49.63
66312;HTU21D;53114;51.138;6.008;2023-02-26T17:00:07;4.88;50.28
66312;HTU21D;53114;51.138;6.008;2023-02-26T17:02:37;4.81;50.74
66312;HTU21D;53114;51.138;6.008;2023-02-26T17:05:22;4.71;51.26
66312;HTU21D;53114;51.138;6.008;2023-02-26T17:07:55;4.62;51.28
66312;HTU21D;53114;51.138;6.008;2023-02-26T17:10:34;4.57;51.46
66312;HTU21D;53114;51.138;6.008;2023-02-26T17:13:13;4.50;51.66
66312;HTU21D;53114;51.138;6.008;2023-02-26T17:15:41;4.44;51.73
66312;HTU21D;53114;51.138;6.008;2023-02-26T17:18:07;4.39;52.38
66312;HTU21D;53114;51.138;6.008;2023-02-26T17:20:34;4.31;53.01
66312;HTU21D;53114;51.138;6.008;2023-02-26T17:23:02;4.23;53.33
66312;HTU21D;53114;51.138;6.008;2023-02-26T17:25:41;4.19;54.04
66312;HTU21D;53114;51.138;6.008;2023-02-26T17:28:18;4.14;54.10
66312;HTU21D;53114;51.138;6.008;2023-02-26T17:30:45;4.10;54.65
66312;HTU21D;53114;51.138;6.008;2023-02-26T17:33:12;4.08;54.43
66312;HTU21D;53114;51.138;6.008;2023-02-26T17:35:39;4.05;54.76
66312;HTU21D;53114;51.138;6.008;2023-02-26T17:38:05;4.00;55.36
66312;HTU21D;53114;51.138;6.008;2023-02-26T17:40:35;3.92;55.81
66312;HTU21D;53114;51.138;6.008;2023-02-26T17:43:02;3.89;56.13
66312;HTU21D;53114;51.138;6.008;2023-02-26T17:45:33;3.85;56.00
66312;HTU21D;53114;51.138;6.008;2023-02-26T17:48:00;3.79;56.58
66312;HTU21D;53114;51.138;6.008;2023-02-26T17:52:56;3.73;57.13
66312;HTU21D;53114;51.138;6.008;2023-02-26T17:55:22;3.67;57.35
66312;HTU21D;53114;51.138;6.008;2023-02-26T17:57:48;3.60;58.38
66312;HTU21D;53114;51.138;6.008;2023-02-26T18:00:17;3.52;58.99
66312;HTU21D;53114;51.138;6.008;2023-02-26T18:02:43;3.50;59.20
66312;HTU21D;53114;51.138;6.008;2023-02-26T18:05:13;3.50;59.52
66312;HTU21D;53114;51.138;6.008;2023-02-26T18:07:40;3.49;59.38
66312;HTU21D;53114;51.138;6.008;2023-02-26T18:10:07;3.46;60.01
66312;HTU21D;53114;51.138;6.008;2023-02-26T18:12:35;3.44;60.51
66312;HTU21D;53114;51.138;6.008;2023-02-26T18:15:04;3.39;60.88
66312;HTU21D;53114;51.138;6.008;2023-02-26T18:17:30;3.35;61.21
66312;HTU21D;53114;51.138;6.008;2023-02-26T18:19:57;3.35;61.15
66312;HTU21D;53114;51.138;6.008;2023-02-26T18:22:23;3.31;61.86
66312;HTU21D;53114;51.138;6.008;2023-02-26T18:24:53;3.29;62.90
66312;HTU21D;53114;51.138;6.008;2023-02-26T18:27:22;3.25;62.97
66312;HTU21D;53114;51.138;6.008;2023-02-26T18:29:49;3.20;62.54
66312;HTU21D;53114;51.138;6.008;2023-02-26T18:32:20;3.14;63.85
66312;HTU21D;53114;51.138;6.008;2023-02-26T18:34:47;3.11;64.51
66312;HTU21D;53114;51.138;6.008;2023-02-26T18:37:17;3.08;65.35
66312;HTU21D;53114;51.138;6.008;2023-02-26T18:39:44;3.01;65.45
66312;HTU21D;53114;51.138;6.008;2023-02-26T18:42:22;2.93;67.04
66312;HTU21D;53114;51.138;6.008;2023-02-26T18:44:49;2.80;67.88
66312;HTU21D;53114;51.138;6.008;2023-02-26T18:47:17;2.69;69.98
66312;HTU21D;53114;51.138;6.008;2023-02-26T18:49:47;2.61;71.19
66312;HTU21D;53114;51.138;6.008;2023-02-26T18:52:14;2.57;72.10
66312;HTU21D;53114;51.138;6.008;2023-02-26T18:54:40;2.49;73.72